createdAt,value
2022-10-12T00:01:32.687Z,29.73
2022-10-12T00:04:06.010Z,30.60
2022-10-12T00:07:01.809Z,28.30
2022-10-12T00:09:38.834Z,27.65
2022-10-12T00:12:21.031Z,26.88
2022-10-12T00:15:09.174Z,25.95
2022-10-12T00:17:41.843Z,25.27
2022-10-12T00:20:16.995Z,26.10
2022-10-12T00:22:58.608Z,26.77
2022-10-12T00:25:32.193Z,26.77
2022-10-12T00:28:01.967Z,23.92
2022-10-12T00:30:31.467Z,25.58
2022-10-12T00:33:10.584Z,27.80
2022-10-12T00:35:38.220Z,26.55
2022-10-12T00:38:07.988Z,29.05
2022-10-12T00:40:37.694Z,27.88
2022-10-12T00:43:28.357Z,30.50
2022-10-12T00:46:02.406Z,30.33
2022-10-12T00:48:42.142Z,28.55
2022-10-12T00:51:25.485Z,28.90
2022-10-12T00:54:08.466Z,28.38
2022-10-12T00:56:38.975Z,28.75
2022-10-12T00:59:17.455Z,27.67
2022-10-12T01:01:47.032Z,24.92
2022-10-12T01:04:22.967Z,27.38
2022-10-12T01:07:22.229Z,25.42
2022-10-12T01:10:02.281Z,28.23
2022-10-12T01:12:47.198Z,25.20
2022-10-12T01:19:58.910Z,24.77
2022-10-12T01:22:43.728Z,22.45
2022-10-12T01:25:42.872Z,23.42
2022-10-12T01:28:40.011Z,25.67
2022-10-12T01:31:35.622Z,25.00
2022-10-12T01:34:23.300Z,23.65
2022-10-12T01:37:14.781Z,23.88
2022-10-12T01:39:50.501Z,21.58
2022-10-12T01:42:26.207Z,21.85
2022-10-12T01:45:06.949Z,22.40
2022-10-12T01:47:47.723Z,20.75
2022-10-12T01:50:19.033Z,22.73
2022-10-12T01:53:16.083Z,26.40
2022-10-12T01:56:01.053Z,22.83
2022-10-12T01:58:35.809Z,23.17
2022-10-12T02:01:25.471Z,22.13
2022-10-12T02:04:13.529Z,21.92
2022-10-12T02:06:55.457Z,22.13
2022-10-12T02:09:42.557Z,23.23
2022-10-12T02:12:22.203Z,23.30
2022-10-12T02:17:53.739Z,25.10
2022-10-12T02:20:38.248Z,24.23
2022-10-12T02:23:07.473Z,21.95
2022-10-12T02:25:50.991Z,19.65
2022-10-12T02:28:25.348Z,22.10
2022-10-12T02:31:35.635Z,20.58
2022-10-12T02:34:15.607Z,21.35
2022-10-12T02:37:07.670Z,21.25
2022-10-12T02:39:49.968Z,21.40
2022-10-12T02:42:58.448Z,22.38
2022-10-12T02:45:32.150Z,23.63
2022-10-12T02:48:01.285Z,25.27
2022-10-12T02:50:48.272Z,24.33
2022-10-12T02:53:25.937Z,22.42
2022-10-12T02:56:02.108Z,23.67
2022-10-12T02:58:32.465Z,23.15
2022-10-12T03:01:02.242Z,20.45
2022-10-12T03:06:17.112Z,20.83
2022-10-12T03:09:02.560Z,22.48
2022-10-12T03:11:46.156Z,25.00
2022-10-12T03:14:27.178Z,25.60
2022-10-12T03:17:08.665Z,22.60
2022-10-12T03:19:44.629Z,24.00
2022-10-12T03:22:16.043Z,23.27
2022-10-12T03:24:45.625Z,22.63
2022-10-12T03:27:24.611Z,23.90
2022-10-12T03:30:04.818Z,24.50
2022-10-12T03:32:40.698Z,23.65
2022-10-12T03:35:13.757Z,22.02
2022-10-12T03:40:42.930Z,25.27
2022-10-12T03:43:12.780Z,25.52
2022-10-12T03:46:08.502Z,21.60
2022-10-12T03:48:48.199Z,22.42
2022-10-12T03:51:23.542Z,22.60
2022-10-12T03:53:58.880Z,22.38
2022-10-12T03:56:32.070Z,22.77
2022-10-12T03:59:18.234Z,23.20
2022-10-12T04:01:58.445Z,22.67
2022-10-12T04:04:26.306Z,24.40
2022-10-12T04:07:00.385Z,21.45
2022-10-12T04:09:46.663Z,22.35
2022-10-12T04:12:30.949Z,21.42
2022-10-12T04:14:58.741Z,18.70
2022-10-12T04:17:26.100Z,21.55
2022-10-12T04:20:10.818Z,22.55
2022-10-12T04:22:57.440Z,19.40
2022-10-12T04:25:32.300Z,20.35
2022-10-12T04:28:13.185Z,20.50
2022-10-12T04:31:04.973Z,24.50
2022-10-12T04:33:55.213Z,22.48
2022-10-12T04:36:22.883Z,20.35
2022-10-12T04:38:50.884Z,19.35
2022-10-12T04:41:32.068Z,22.25
2022-10-12T04:44:01.784Z,22.90
2022-10-12T04:46:41.273Z,20.02
2022-10-12T04:49:22.753Z,20.17
2022-10-12T04:51:57.206Z,19.73
2022-10-12T04:54:26.949Z,21.00
2022-10-12T04:57:07.560Z,19.92
2022-10-12T04:59:49.487Z,19.25
2022-10-12T05:02:21.669Z,22.20
2022-10-12T05:05:06.759Z,19.45
2022-10-12T05:08:04.037Z,20.63
2022-10-12T05:10:34.163Z,18.88
2022-10-12T05:13:07.906Z,21.10
2022-10-12T05:16:08.749Z,21.48
2022-10-12T05:18:32.829Z,22.77
2022-10-12T05:23:58.368Z,22.95
2022-10-12T05:26:32.562Z,24.85
2022-10-12T05:31:40.556Z,28.75
2022-10-12T05:34:11.759Z,29.33
2022-10-12T05:37:10.657Z,22.25
2022-10-12T05:39:54.894Z,22.80
2022-10-12T05:42:34.931Z,22.83
2022-10-12T05:45:17.098Z,27.45
2022-10-12T05:47:52.241Z,24.35
2022-10-12T05:50:31.879Z,24.48
2022-10-12T05:53:01.438Z,23.90
2022-10-12T05:55:39.633Z,25.63
2022-10-12T05:58:14.634Z,26.45
2022-10-12T06:00:46.219Z,26.05
2022-10-12T06:03:21.130Z,26.55
2022-10-12T06:06:25.447Z,24.55
2022-10-12T06:08:57.701Z,20.08
2022-10-12T06:11:30.429Z,21.30
2022-10-12T06:14:15.785Z,21.10
2022-10-12T06:16:54.632Z,22.13
2022-10-12T06:19:32.448Z,21.98
2022-10-12T06:22:21.572Z,27.63
2022-10-12T06:25:02.909Z,23.33
2022-10-12T06:27:30.217Z,24.00
2022-10-12T06:30:04.093Z,22.33
2022-10-12T06:32:40.875Z,23.27
2022-10-12T06:35:22.701Z,22.08
2022-10-12T06:37:56.261Z,20.65
2022-10-12T06:40:28.666Z,25.33
2022-10-12T06:42:58.601Z,25.30
2022-10-12T06:45:36.674Z,27.23
2022-10-12T06:48:07.453Z,24.98
2022-10-12T06:50:34.609Z,24.67
2022-10-12T06:53:06.655Z,27.35
2022-10-12T06:55:39.709Z,24.13
2022-10-12T06:58:09.615Z,22.20
2022-10-12T07:00:40.595Z,27.50
2022-10-12T07:03:10.504Z,24.63
2022-10-12T07:05:40.095Z,23.92
2022-10-12T07:08:10.723Z,24.13
2022-10-12T07:10:45.481Z,27.33
2022-10-12T07:19:10.317Z,25.98
2022-10-12T07:21:37.247Z,22.02
2022-10-12T07:24:04.583Z,24.38
2022-10-12T07:26:31.862Z,24.88
2022-10-12T07:28:59.298Z,24.60
2022-10-12T07:31:26.612Z,22.23
2022-10-12T07:33:54.912Z,24.50
2022-10-12T07:36:22.333Z,19.98
2022-10-12T07:38:51.055Z,22.85
2022-10-12T07:41:18.457Z,23.17
2022-10-12T07:43:45.594Z,24.00
2022-10-12T07:46:12.546Z,23.52
2022-10-12T07:48:44.560Z,21.92
2022-10-12T07:51:16.012Z,24.15
2022-10-12T07:53:42.869Z,24.88
2022-10-12T07:56:15.263Z,24.63
2022-10-12T07:58:53.500Z,21.58
2022-10-12T08:01:22.222Z,23.25
2022-10-12T08:03:49.932Z,22.30
2022-10-12T08:06:20.108Z,22.27
2022-10-12T08:08:47.810Z,21.92
2022-10-12T08:11:15.298Z,22.40
2022-10-12T08:13:42.478Z,22.05
2022-10-12T08:16:14.840Z,23.33
2022-10-12T08:18:42.141Z,21.85
2022-10-12T08:21:10.843Z,20.75
2022-10-12T08:23:38.420Z,21.52
2022-10-12T08:26:05.961Z,21.48
2022-10-12T08:28:33.150Z,21.15
2022-10-12T08:31:00.731Z,18.58
2022-10-12T08:33:29.962Z,22.05
2022-10-12T08:35:56.836Z,19.42
2022-10-12T08:38:23.625Z,19.92
2022-10-12T08:41:18.961Z,21.13
2022-10-12T08:43:58.009Z,20.73
2022-10-12T08:46:26.590Z,21.65
2022-10-12T08:49:05.997Z,21.98
2022-10-12T08:51:39.391Z,21.77
2022-10-12T08:54:08.466Z,23.83
2022-10-12T08:56:35.916Z,23.30
2022-10-12T08:59:03.617Z,20.67
2022-10-12T09:01:37.361Z,19.55
2022-10-12T09:04:19.349Z,19.90
2022-10-12T09:07:00.729Z,20.02
2022-10-12T09:09:33.059Z,19.13
2022-10-12T09:12:15.413Z,20.92
2022-10-12T09:14:43.586Z,19.77
2022-10-12T09:17:33.690Z,19.20
2022-10-12T09:20:06.546Z,19.25
2022-10-12T09:22:35.241Z,17.40
2022-10-12T09:25:03.441Z,16.02
2022-10-12T09:27:31.936Z,16.13
2022-10-12T09:30:03.241Z,17.52
2022-10-12T09:32:45.078Z,17.52
2022-10-12T09:35:15.766Z,16.02
2022-10-12T09:37:44.928Z,15.68
2022-10-12T09:40:27.644Z,15.98
2022-10-12T09:42:56.044Z,16.48
2022-10-12T09:45:22.993Z,16.80
2022-10-12T09:48:08.549Z,17.08
2022-10-12T09:50:50.353Z,16.10
2022-10-12T09:53:27.380Z,15.20
2022-10-12T09:56:19.562Z,16.80
2022-10-12T09:59:05.886Z,15.90
2022-10-12T10:01:35.479Z,16.25
2022-10-12T10:04:11.212Z,17.13
2022-10-12T10:06:40.302Z,14.63
2022-10-12T10:09:26.908Z,17.23
2022-10-12T10:11:54.321Z,16.65
2022-10-12T10:14:21.598Z,16.65
2022-10-12T10:16:54.572Z,16.20
2022-10-12T10:19:25.123Z,15.63
2022-10-12T10:21:53.556Z,16.38
2022-10-12T10:24:26.209Z,16.63
2022-10-12T10:27:05.924Z,15.43
2022-10-12T10:29:32.654Z,15.02
2022-10-12T10:32:26.928Z,15.27
2022-10-12T10:35:04.129Z,15.15
2022-10-12T10:37:31.735Z,15.20
2022-10-12T10:39:59.549Z,14.85
2022-10-12T10:42:31.581Z,14.77
2022-10-12T10:45:02.332Z,14.60
2022-10-12T10:47:31.089Z,14.73
2022-10-12T10:50:01.773Z,15.13
2022-10-12T10:52:31.722Z,15.07
2022-10-12T10:55:11.397Z,12.98
2022-10-12T10:58:03.300Z,13.82
2022-10-12T11:00:39.055Z,14.57
2022-10-12T11:03:11.867Z,14.63
2022-10-12T11:05:46.715Z,14.35
2022-10-12T11:08:25.791Z,12.98
2022-10-12T11:10:58.233Z,14.05
2022-10-12T11:13:42.888Z,13.80
2022-10-12T11:16:29.562Z,13.20
2022-10-12T11:19:06.728Z,13.30
2022-10-12T11:21:43.176Z,12.27
2022-10-12T11:24:39.485Z,13.80
2022-10-12T11:27:33.559Z,14.35
2022-10-12T11:30:09.249Z,13.82
2022-10-12T11:32:43.264Z,13.73
2022-10-12T11:35:22.138Z,14.18
2022-10-12T11:37:59.259Z,14.57
2022-10-12T11:41:00.337Z,14.35
2022-10-12T11:43:30.186Z,13.02
2022-10-12T11:46:05.866Z,12.77
2022-10-12T11:48:39.632Z,13.02
2022-10-12T11:51:07.421Z,12.93
2022-10-12T11:53:58.856Z,13.52
2022-10-12T11:56:38.558Z,13.77
2022-10-12T11:59:32.521Z,14.50
2022-10-12T12:02:22.998Z,15.77
2022-10-12T12:04:50.861Z,15.48
2022-10-12T12:07:43.446Z,17.13
2022-10-12T12:10:25.607Z,19.42
2022-10-12T12:13:18.241Z,18.70
2022-10-12T12:15:47.859Z,17.98
2022-10-12T12:18:26.098Z,17.42
2022-10-12T12:21:02.942Z,17.40
2022-10-12T12:23:38.575Z,21.02
2022-10-12T12:26:16.210Z,17.42
2022-10-12T12:29:10.431Z,19.17
2022-10-12T12:31:37.690Z,21.05
2022-10-12T12:34:14.160Z,22.85
2022-10-12T12:36:47.152Z,19.73
2022-10-12T12:39:33.378Z,20.15
2022-10-12T12:42:06.549Z,20.15
2022-10-12T12:44:41.360Z,20.13
2022-10-12T12:50:01.165Z,20.58
2022-10-12T12:52:38.927Z,22.15
2022-10-12T12:55:17.617Z,20.48
2022-10-12T12:58:05.441Z,19.98
2022-10-12T13:00:51.001Z,19.35
2022-10-12T13:03:45.545Z,19.60
2022-10-12T13:06:18.240Z,21.17
2022-10-12T13:09:00.080Z,19.13
2022-10-12T13:11:47.605Z,13.20
2022-10-12T13:14:36.191Z,16.08
2022-10-12T13:17:32.798Z,17.30
2022-10-12T13:20:10.278Z,18.98
2022-10-12T13:22:37.217Z,20.23
2022-10-12T13:25:07.861Z,19.00
2022-10-12T13:27:51.823Z,18.92
2022-10-12T13:30:40.869Z,17.77
2022-10-12T13:33:11.296Z,17.55
2022-10-12T13:36:17.285Z,17.10
2022-10-12T13:38:44.516Z,18.35
2022-10-12T13:41:14.763Z,17.88
2022-10-12T13:43:53.626Z,17.50
2022-10-12T13:46:59.210Z,18.45
2022-10-12T13:49:41.590Z,18.65
2022-10-12T13:52:11.491Z,19.15
2022-10-12T13:54:49.912Z,17.27
2022-10-12T13:57:42.996Z,18.00
2022-10-12T14:00:20.342Z,17.05
2022-10-12T14:02:58.982Z,18.33
2022-10-12T14:05:28.323Z,17.88
2022-10-12T14:08:17.109Z,17.27
2022-10-12T14:10:44.921Z,18.90
2022-10-12T14:13:17.863Z,19.15
2022-10-12T14:15:44.830Z,17.77
2022-10-12T14:18:51.012Z,18.02
2022-10-12T14:21:23.380Z,18.77
2022-10-12T14:23:59.392Z,17.98
2022-10-12T14:26:34.757Z,19.20
2022-10-12T14:29:27.510Z,17.20
2022-10-12T14:31:56.742Z,16.98
2022-10-12T14:34:27.837Z,17.83
2022-10-12T14:37:06.633Z,17.73
2022-10-12T14:39:33.715Z,15.80
2022-10-12T14:42:18.652Z,16.63
2022-10-12T14:44:45.516Z,16.63
2022-10-12T14:47:22.409Z,16.30
2022-10-12T14:49:51.720Z,15.93
2022-10-12T14:52:25.640Z,16.48
2022-10-12T14:57:29.723Z,17.58
2022-10-12T14:59:57.367Z,17.77
2022-10-12T15:02:29.314Z,16.40
2022-10-12T15:04:56.788Z,17.00
2022-10-12T15:07:30.857Z,16.80
2022-10-12T15:09:58.592Z,17.55
2022-10-12T15:12:27.122Z,18.58
2022-10-12T15:14:56.322Z,16.73
2022-10-12T15:17:23.487Z,18.88
2022-10-12T15:19:51.528Z,18.98
2022-10-12T15:22:25.729Z,17.75
2022-10-12T15:24:54.148Z,18.73
2022-10-12T15:27:21.320Z,20.13
2022-10-12T15:29:48.723Z,18.40
2022-10-12T15:32:17.655Z,18.77
2022-10-12T15:34:44.921Z,18.75
2022-10-12T15:37:12.337Z,18.80
2022-10-12T15:39:42.751Z,19.30
2022-10-12T15:42:12.459Z,22.40
2022-10-12T15:44:42.811Z,22.88
2022-10-12T15:47:11.576Z,30.77
2022-10-12T15:49:38.754Z,23.95
2022-10-12T15:52:09.602Z,24.90
2022-10-12T15:54:36.604Z,22.88
2022-10-12T15:57:03.530Z,21.17
2022-10-12T15:59:31.268Z,18.95
2022-10-12T16:01:59.211Z,19.98
2022-10-12T16:04:26.522Z,22.52
2022-10-12T16:06:53.362Z,23.63
2022-10-12T16:09:20.556Z,23.77
2022-10-12T16:11:49.024Z,24.88
2022-10-12T16:14:16.420Z,21.27
2022-10-12T16:16:43.581Z,21.58
2022-10-12T16:19:10.809Z,21.17
2022-10-12T16:21:38.344Z,21.05
2022-10-12T16:24:08.516Z,20.27
2022-10-12T16:26:35.318Z,20.60
2022-10-12T16:29:11.466Z,20.48
2022-10-12T16:31:44.005Z,22.38
2022-10-12T16:34:11.210Z,21.00
2022-10-12T16:36:38.985Z,22.27
2022-10-12T16:39:06.274Z,32.13
2022-10-12T16:41:34.089Z,38.25
2022-10-12T16:44:01.774Z,33.90
2022-10-12T16:46:28.550Z,28.30
2022-10-12T16:48:55.478Z,35.10
2022-10-12T16:51:22.246Z,31.60
2022-10-12T16:53:49.038Z,26.73
2022-10-12T16:56:16.225Z,27.40
2022-10-12T16:58:42.997Z,24.85
2022-10-12T17:01:14.145Z,26.73
2022-10-12T17:03:41.683Z,26.05
2022-10-12T17:06:09.160Z,27.65
2022-10-12T17:08:38.993Z,34.00
2022-10-12T17:11:13.373Z,35.60
2022-10-12T17:13:45.210Z,41.08
2022-10-12T17:16:34.051Z,39.33
2022-10-12T17:19:00.808Z,35.40
2022-10-12T17:21:28.094Z,31.27
2022-10-12T17:23:59.562Z,28.30
2022-10-12T17:26:27.215Z,26.23
2022-10-12T17:28:54.256Z,30.42
2022-10-12T17:31:21.205Z,30.70
2022-10-12T17:33:49.176Z,33.00
2022-10-12T17:36:16.179Z,27.13
2022-10-12T17:38:43.397Z,26.92
2022-10-12T17:41:10.291Z,25.30
2022-10-12T17:43:37.125Z,27.90
2022-10-12T17:46:07.275Z,27.73
2022-10-12T17:48:34.690Z,26.15
2022-10-12T17:51:03.306Z,22.60
2022-10-12T17:53:30.110Z,25.67
2022-10-12T17:56:02.002Z,24.98
2022-10-12T17:58:29.441Z,25.50
2022-10-12T18:00:56.535Z,29.48
2022-10-12T18:03:26.318Z,26.98
2022-10-12T18:05:53.155Z,29.95
2022-10-12T18:08:20.282Z,29.10
2022-10-12T18:10:47.135Z,42.28
2022-10-12T18:13:14.049Z,36.97
2022-10-12T18:15:44.067Z,29.20
2022-10-12T18:18:15.137Z,29.15
2022-10-12T18:20:42.388Z,28.85
2022-10-12T18:23:09.429Z,27.35
2022-10-12T18:25:41.822Z,30.73
2022-10-12T18:28:10.854Z,26.65
2022-10-12T18:30:45.166Z,26.58
2022-10-12T18:33:12.267Z,27.35
2022-10-12T18:35:39.505Z,26.13
2022-10-12T18:38:06.408Z,27.60
2022-10-12T18:40:36.612Z,26.23
2022-10-12T18:43:06.641Z,27.80
2022-10-12T18:45:33.532Z,25.88
2022-10-12T18:48:00.731Z,25.73
2022-10-12T18:50:28.095Z,33.67
2022-10-12T18:52:55.271Z,35.38
2022-10-12T18:55:22.093Z,30.42
2022-10-12T18:57:48.858Z,33.75
2022-10-12T19:00:16.124Z,31.90
2022-10-12T19:02:42.966Z,31.50
2022-10-12T19:05:09.854Z,31.25
2022-10-12T19:07:36.850Z,32.58
2022-10-12T19:10:08.426Z,26.52
2022-10-12T19:12:35.892Z,28.98
2022-10-12T19:15:03.719Z,27.65
2022-10-12T19:17:31.465Z,24.77
2022-10-12T19:19:59.522Z,27.80
2022-10-12T19:22:26.923Z,25.55
2022-10-12T19:24:54.173Z,26.27
2022-10-12T19:27:21.012Z,29.17
2022-10-12T19:29:47.801Z,26.45
2022-10-12T19:32:14.540Z,24.77
2022-10-12T19:34:41.275Z,25.65
2022-10-12T19:37:08.477Z,29.30
2022-10-12T19:39:36.360Z,27.30
2022-10-12T19:42:03.208Z,27.42
2022-10-12T19:44:30.031Z,29.30
2022-10-12T19:46:58.296Z,27.45
2022-10-12T19:49:25.184Z,28.42
2022-10-12T19:51:52.022Z,33.70
2022-10-12T19:54:19.789Z,30.75
2022-10-12T19:56:46.720Z,30.88
2022-10-12T19:59:13.880Z,31.85
2022-10-12T20:01:40.673Z,35.42
2022-10-12T20:04:10.064Z,29.60
2022-10-12T20:06:38.272Z,27.23
2022-10-12T20:09:07.531Z,27.70
2022-10-12T20:11:35.740Z,30.08
2022-10-12T20:14:03.385Z,33.50
2022-10-12T20:16:34.820Z,36.03
2022-10-12T20:19:02.895Z,32.33
2022-10-12T20:21:29.695Z,35.75
2022-10-12T20:23:56.854Z,37.10
2022-10-12T20:26:25.792Z,31.80
2022-10-12T20:28:54.221Z,30.90
2022-10-12T20:31:23.837Z,32.83
2022-10-12T20:33:54.545Z,28.10
2022-10-12T20:36:26.411Z,29.95
2022-10-12T20:38:53.817Z,29.80
2022-10-12T20:41:21.837Z,32.80
2022-10-12T20:43:48.894Z,29.88
2022-10-12T20:46:24.088Z,28.98
2022-10-12T20:48:55.897Z,28.02
2022-10-12T20:51:31.387Z,26.80
2022-10-12T20:54:00.797Z,29.83
2022-10-12T20:56:30.911Z,30.40
2022-10-12T20:59:01.489Z,24.60
2022-10-12T21:01:28.744Z,25.25
2022-10-12T21:03:56.369Z,23.98
2022-10-12T21:06:23.858Z,21.15
2022-10-12T21:08:53.519Z,23.33
2022-10-12T21:11:21.164Z,22.50
2022-10-12T21:13:48.005Z,23.65
2022-10-12T21:16:15.449Z,23.17
2022-10-12T21:18:43.164Z,20.95
2022-10-12T21:21:12.978Z,21.30
2022-10-12T21:23:41.137Z,24.40
2022-10-12T21:26:16.977Z,22.77
2022-10-12T21:28:44.468Z,23.65
2022-10-12T21:31:12.804Z,22.77
2022-10-12T21:33:40.643Z,21.83
2022-10-12T21:36:13.443Z,23.63
2022-10-12T21:38:40.969Z,22.17
2022-10-12T21:41:09.013Z,19.42
2022-10-12T21:43:37.259Z,20.38
2022-10-12T21:46:06.940Z,20.30
2022-10-12T21:48:34.671Z,22.65
2022-10-12T21:51:02.282Z,23.42
2022-10-12T21:53:29.766Z,23.23
2022-10-12T21:55:56.916Z,22.05
2022-10-12T21:58:24.066Z,24.17
2022-10-12T22:00:50.885Z,19.08
2022-10-12T22:03:17.637Z,20.20
2022-10-12T22:05:44.893Z,21.08
2022-10-12T22:08:11.757Z,18.95
2022-10-12T22:10:39.249Z,21.23
2022-10-12T22:13:06.856Z,21.90
2022-10-12T22:15:33.946Z,20.15
2022-10-12T22:18:01.137Z,19.98
2022-10-12T22:20:28.255Z,20.70
2022-10-12T22:22:54.992Z,21.67
2022-10-12T22:25:21.754Z,20.55
2022-10-12T22:27:48.550Z,21.50
2022-10-12T22:30:15.459Z,20.13
2022-10-12T22:32:42.720Z,19.85
2022-10-12T22:35:09.649Z,20.27
2022-10-12T22:37:36.865Z,20.42
2022-10-12T22:40:05.376Z,20.52
2022-10-12T22:42:32.103Z,21.20
2022-10-12T22:44:59.253Z,21.17
2022-10-12T22:47:26.357Z,20.83
2022-10-12T22:49:53.493Z,22.27
2022-10-12T22:52:20.625Z,20.10
2022-10-12T22:54:47.784Z,19.35
2022-10-12T22:57:14.518Z,22.20
2022-10-12T22:59:41.845Z,20.00
2022-10-12T23:02:08.597Z,21.25
2022-10-12T23:04:35.462Z,22.45
2022-10-12T23:07:02.188Z,22.67
2022-10-12T23:09:29.325Z,21.30
2022-10-12T23:11:56.100Z,20.27
2022-10-12T23:14:22.875Z,24.90
2022-10-12T23:16:50.148Z,21.40
2022-10-12T23:19:17.265Z,23.80
2022-10-12T23:21:44.070Z,23.05
2022-10-12T23:24:10.911Z,24.58
2022-10-12T23:26:38.014Z,20.30
2022-10-12T23:29:04.754Z,21.60
2022-10-12T23:31:32.374Z,21.30
2022-10-12T23:34:01.584Z,25.25
2022-10-12T23:36:29.086Z,22.02
2022-10-12T23:38:56.595Z,21.77
2022-10-12T23:41:23.830Z,21.95
2022-10-12T23:43:50.676Z,19.58
2022-10-12T23:46:17.409Z,20.15
2022-10-12T23:48:44.519Z,20.40
2022-10-12T23:51:11.599Z,20.15
2022-10-12T23:53:39.035Z,18.98
2022-10-12T23:56:06.931Z,23.50
2022-10-12T23:58:34.829Z,20.98
